Time,TemperatureF,DewpointF,PressureIn,WindDirection,WindDirectionDegrees,WindSpeedMPH,WindSpeedGustMPH,Humidity,HourlyPrecipIn,Conditions,Clouds,dailyrainin,SoftwareType,DateUTC
2013-01-07 00:25:00,30.3,27.0,30.23,West,275,21.0,-999.0,87,-99.99,,,0.00,weatherlink.com 1.10,2013-01-07 05:25:00,
2013-01-07 00:40:00,30.0,27.0,30.22,NE,42,5.0,-999.0,89,-99.99,,,0.00,weatherlink.com 1.10,2013-01-07 05:40:00,
2013-01-07 00:55:00,29.9,27.0,30.21,North,350,10.0,-999.0,89,-99.99,,,0.00,weatherlink.com 1.10,2013-01-07 05:55:00,
2013-01-07 01:10:00,29.7,27.0,30.20,NW,325,18.0,-999.0,89,-99.99,,,0.00,weatherlink.com 1.10,2013-01-07 06:10:00,
2013-01-07 01:25:00,29.6,27.0,30.19,NNW,336,14.0,-999.0,88,-99.99,,,0.00,weatherlink.com 1.10,2013-01-07 06:25:00,
2013-01-07 01:40:00,29.3,27.0,30.20,North,355,21.0,-999.0,89,-99.99,,,0.00,weatherlink.com 1.10,2013-01-07 06:40:00,
2013-01-07 01:55:00,29.6,26.0,30.23,NW,313,20.0,-999.0,86,-99.99,,,0.00,weatherlink.com 1.10,2013-01-07 06:55:00,
2013-01-07 02:10:00,28.9,26.0,30.24,North,355,8.0,-999.0,90,-99.99,,,0.00,weatherlink.com 1.10,2013-01-07 07:10:00,
2013-01-07 02:25:00,28.5,27.0,30.25,NW,309,20.0,-999.0,92,-99.99,,,0.00,weatherlink.com 1.10,2013-01-07 07:25:00,
2013-01-07 02:40:00,28.5,27.0,30.26,NNW,327,21.0,-999.0,92,-99.99,,,0.00,weatherlink.com 1.10,2013-01-07 07:40:00,
2013-01-07 02:55:00,28.2,26.0,30.25,NNW,333,22.0,-999.0,92,-99.99,,,0.00,weatherlink.com 1.10,2013-01-07 07:55:00,
2013-01-07 03:10:00,28.0,26.0,30.26,North,355,14.0,-999.0,90,-99.99,,,0.00,weatherlink.com 1.10,2013-01-07 08:10:00,
2013-01-07 03:25:00,27.5,25.0,30.25,NW,325,24.0,-999.0,89,-99.99,,,0.00,weatherlink.com 1.10,2013-01-07 08:25:00,
2013-01-07 03:40:00,27.1,24.0,30.27,NNW,333,12.0,-999.0,89,-99.99,,,0.00,weatherlink.com 1.10,2013-01-07 08:40:00,
2013-01-07 03:55:00,26.6,24.0,30.28,North,10,15.0,-999.0,89,-99.99,,,0.00,weatherlink.com 1.10,2013-01-07 08:55:00,
2013-01-07 04:10:00,26.4,24.0,30.29,NNW,328,21.0,-999.0,89,-99.99,,,0.00,weatherlink.com 1.10,2013-01-07 09:10:00,
2013-01-07 04:25:00,26.2,23.0,30.29,North,355,12.0,-999.0,89,-99.99,,,0.00,weatherlink.com 1.10,2013-01-07 09:25:00,
2013-01-07 04:40:00,25.9,23.0,30.29,North,355,13.0,-999.0,89,-99.99,,,0.00,weatherlink.com 1.10,2013-01-07 09:40:00,
2013-01-07 04:55:00,25.8,23.0,30.29,NNE,12,17.0,-999.0,88,-99.99,,,0.00,weatherlink.com 1.10,2013-01-07 09:55:00,
2013-01-07 05:10:00,25.6,23.0,30.30,NNW,344,14.0,-999.0,88,-99.99,,,0.00,weatherlink.com 1.10,2013-01-07 10:10:00,
2013-01-07 05:25:00,25.5,23.0,30.31,NNW,342,14.0,-999.0,88,-99.99,,,0.00,weatherlink.com 1.10,2013-01-07 10:25:00,
2013-01-07 05:40:00,25.3,22.0,30.32,NNW,348,15.0,-999.0,88,-99.99,,,0.00,weatherlink.com 1.10,2013-01-07 10:40:00,
2013-01-07 05:55:00,25.3,22.0,30.32,North,5,12.0,-999.0,88,-99.99,,,0.00,weatherlink.com 1.10,2013-01-07 10:55:00,
2013-01-07 06:10:00,25.6,22.0,30.33,NNE,18,11.0,-999.0,87,-99.99,,,0.00,weatherlink.com 1.10,2013-01-07 11:10:00,
2013-01-07 06:25:00,25.6,22.0,30.34,North,9,10.0,-999.0,87,-99.99,,,0.00,weatherlink.com 1.10,2013-01-07 11:25:00,
2013-01-07 06:40:00,26.0,22.0,30.34,NNE,15,13.0,-999.0,85,-99.99,,,0.00,weatherlink.com 1.10,2013-01-07 11:40:00,
2013-01-07 06:55:00,26.3,22.0,30.35,NNE,14,8.0,-999.0,83,-99.99,,,0.00,weatherlink.com 1.10,2013-01-07 11:55:00,
2013-01-07 07:10:00,26.6,22.0,30.36,North,5,9.0,-999.0,81,-99.99,,,0.00,weatherlink.com 1.10,2013-01-07 12:10:00,
2013-01-07 07:25:00,26.4,22.0,30.36,North,360,9.0,-999.0,82,-99.99,,,0.00,weatherlink.com 1.10,2013-01-07 12:25:00,
2013-01-07 07:40:00,26.7,22.0,30.38,North,355,6.0,-999.0,81,-99.99,,,0.00,weatherlink.com 1.10,2013-01-07 12:40:00,
2013-01-07 07:55:00,26.1,22.0,30.38,North,349,10.0,-999.0,83,-99.99,,,0.00,weatherlink.com 1.10,2013-01-07 12:55:00,
2013-01-07 08:10:00,27.1,21.0,30.39,North,9,8.0,-999.0,78,-99.99,,,0.00,weatherlink.com 1.10,2013-01-07 13:10:00,
2013-01-07 08:25:00,27.5,21.0,30.40,NNE,14,6.0,-999.0,77,-99.99,,,0.00,weatherlink.com 1.10,2013-01-07 13:25:00,
2013-01-07 08:40:00,28.3,21.0,30.41,North,9,4.0,-999.0,75,-99.99,,,0.00,weatherlink.com 1.10,2013-01-07 13:40:00,
2013-01-07 08:55:00,29.0,22.0,30.42,NE,37,0.0,-999.0,75,-99.99,,,0.00,weatherlink.com 1.10,2013-01-07 13:55:00,
2013-01-07 09:10:00,31.7,23.0,30.43,ENE,63,1.0,-999.0,69,-99.99,,,0.00,weatherlink.com 1.10,2013-01-07 14:10:00,
2013-01-07 09:25:00,33.7,23.0,30.44,East,101,0.0,-999.0,66,-99.99,,,0.00,weatherlink.com 1.10,2013-01-07 14:25:00,
2013-01-07 09:40:00,34.7,24.0,30.44,East,101,0.0,-999.0,66,-99.99,,,0.00,weatherlink.com 1.10,2013-01-07 14:40:00,
2013-01-07 09:55:00,35.9,24.0,30.45,East,101,1.0,-999.0,63,-99.99,,,0.00,weatherlink.com 1.10,2013-01-07 14:55:00,
2013-01-07 10:10:00,37.0,24.0,30.45,East,101,1.0,-999.0,59,-99.99,,,0.00,weatherlink.com 1.10,2013-01-07 15:10:00,
2013-01-07 10:25:00,37.7,24.0,30.45,ESE,105,0.0,-999.0,58,-99.99,,,0.00,weatherlink.com 1.10,2013-01-07 15:25:00,
2013-01-07 10:40:00,38.1,23.0,30.45,ESE,105,2.0,-999.0,56,-99.99,,,0.00,weatherlink.com 1.10,2013-01-07 15:40:00,
2013-01-07 10:55:00,38.4,25.0,30.46,ESE,107,5.0,-999.0,59,-99.99,,,0.00,weatherlink.com 1.10,2013-01-07 15:55:00,
2013-01-07 11:10:00,38.6,26.0,30.46,ESE,110,0.0,-999.0,60,-99.99,,,0.00,weatherlink.com 1.10,2013-01-07 16:10:00,
2013-01-07 11:25:00,38.0,25.0,30.46,SW,233,4.0,-999.0,61,-99.99,,,0.00,weatherlink.com 1.10,2013-01-07 16:25:00,
2013-01-07 11:40:00,36.6,25.0,30.46,West,263,5.0,-999.0,63,-99.99,,,0.00,weatherlink.com 1.10,2013-01-07 16:40:00,
2013-01-07 11:55:00,36.2,26.0,30.45,WNW,294,4.0,-999.0,66,-99.99,,,0.00,weatherlink.com 1.10,2013-01-07 16:55:00,
2013-01-07 12:10:00,37.6,26.0,30.44,NE,55,3.0,-999.0,63,-99.99,,,0.00,weatherlink.com 1.10,2013-01-07 17:10:00,
2013-01-07 12:25:00,39.6,26.0,30.44,SSE,157,0.0,-999.0,58,-99.99,,,0.00,weatherlink.com 1.10,2013-01-07 17:25:00,
2013-01-07 12:40:00,40.6,27.0,30.44,SSE,161,0.0,-999.0,58,-99.99,,,0.00,weatherlink.com 1.10,2013-01-07 17:40:00,
2013-01-07 12:55:00,40.2,26.0,30.43,West,273,3.0,-999.0,57,-99.99,,,0.00,weatherlink.com 1.10,2013-01-07 17:55:00,
2013-01-07 13:10:00,39.9,26.0,30.43,WSW,247,3.0,-999.0,58,-99.99,,,0.00,weatherlink.com 1.10,2013-01-07 18:10:00,
2013-01-07 13:25:00,40.1,26.0,30.44,West,272,5.0,-999.0,57,-99.99,,,0.00,weatherlink.com 1.10,2013-01-07 18:25:00,
2013-01-07 13:40:00,40.6,26.0,30.43,SSW,212,5.0,-999.0,57,-99.99,,,0.00,weatherlink.com 1.10,2013-01-07 18:40:00,
2013-01-07 13:55:00,40.5,25.0,30.43,WSW,257,4.0,-999.0,55,-99.99,,,0.00,weatherlink.com 1.10,2013-01-07 18:55:00,
2013-01-07 14:10:00,41.6,26.0,30.43,South,190,0.0,-999.0,54,-99.99,,,0.00,weatherlink.com 1.10,2013-01-07 19:10:00,
2013-01-07 14:25:00,42.4,26.0,30.43,South,178,1.0,-999.0,52,-99.99,,,0.00,weatherlink.com 1.10,2013-01-07 19:25:00,
2013-01-07 14:40:00,42.6,25.0,30.43,South,175,4.0,-999.0,51,-99.99,,,0.00,weatherlink.com 1.10,2013-01-07 19:40:00,
2013-01-07 14:55:00,42.2,25.0,30.43,SSE,161,0.0,-999.0,50,-99.99,,,0.00,weatherlink.com 1.10,2013-01-07 19:55:00,
2013-01-07 15:10:00,42.0,24.0,30.44,SSE,165,6.0,-999.0,50,-99.99,,,0.00,weatherlink.com 1.10,2013-01-07 20:10:00,
2013-01-07 15:25:00,41.7,25.0,30.44,South,175,2.0,-999.0,51,-99.99,,,0.00,weatherlink.com 1.10,2013-01-07 20:25:00,
2013-01-07 15:40:00,41.8,24.0,30.44,SSE,165,7.0,-999.0,50,-99.99,,,0.00,weatherlink.com 1.10,2013-01-07 20:40:00,
2013-01-07 15:55:00,42.1,25.0,30.44,SSE,161,6.0,-999.0,50,-99.99,,,0.00,weatherlink.com 1.10,2013-01-07 20:55:00,
2013-01-07 16:10:00,41.9,25.0,30.44,South,172,4.0,-999.0,51,-99.99,,,0.00,weatherlink.com 1.10,2013-01-07 21:10:00,
2013-01-07 16:25:00,41.4,24.0,30.45,SSE,156,4.0,-999.0,50,-99.99,,,0.00,weatherlink.com 1.10,2013-01-07 21:25:00,
2013-01-07 16:40:00,40.6,24.0,30.45,SSE,152,6.0,-999.0,51,-99.99,,,0.00,weatherlink.com 1.10,2013-01-07 21:40:00,
2013-01-07 17:10:00,39.1,24.0,30.45,SSE,158,4.0,-999.0,56,-99.99,,,0.00,weatherlink.com 1.10,2013-01-07 22:10:00,
2013-01-07 17:25:00,37.4,24.0,30.45,South,191,4.0,-999.0,59,-99.99,,,0.00,weatherlink.com 1.10,2013-01-07 22:25:00,
2013-01-07 17:40:00,36.2,24.0,30.46,South,174,7.0,-999.0,62,-99.99,,,0.00,weatherlink.com 1.10,2013-01-07 22:40:00,
2013-01-07 17:55:00,35.4,25.0,30.46,SSE,159,9.0,-999.0,65,-99.99,,,0.00,weatherlink.com 1.10,2013-01-07 22:55:00,
2013-01-07 18:10:00,34.8,24.0,30.46,South,176,2.0,-999.0,66,-99.99,,,0.00,weatherlink.com 1.10,2013-01-07 23:10:00,
2013-01-07 18:40:00,34.1,24.0,30.46,SSE,154,2.0,-999.0,67,-99.99,,,0.00,weatherlink.com 1.10,2013-01-07 23:40:00,
2013-01-07 18:55:00,33.8,24.0,30.46,SSE,165,5.0,-999.0,67,-99.99,,,0.00,weatherlink.com 1.10,2013-01-07 23:55:00,
2013-01-07 19:10:00,33.7,25.0,30.47,SSE,148,2.0,-999.0,69,-99.99,,,0.00,weatherlink.com 1.10,2013-01-08 00:10:00,
2013-01-07 19:25:00,33.2,25.0,30.47,SSE,163,4.0,-999.0,71,-99.99,,,0.00,weatherlink.com 1.10,2013-01-08 00:25:00,
2013-01-07 19:40:00,33.2,25.0,30.46,South,171,6.0,-999.0,71,-99.99,,,0.00,weatherlink.com 1.10,2013-01-08 00:40:00,
2013-01-07 19:55:00,32.9,25.0,30.46,SSW,205,4.0,-999.0,72,-99.99,,,0.00,weatherlink.com 1.10,2013-01-08 00:55:00,
2013-01-07 20:10:00,32.8,25.0,30.46,South,182,5.0,-999.0,72,-99.99,,,0.00,weatherlink.com 1.10,2013-01-08 01:10:00,
2013-01-07 20:25:00,32.5,25.0,30.45,South,173,7.0,-999.0,73,-99.99,,,0.00,weatherlink.com 1.10,2013-01-08 01:25:00,
2013-01-07 20:40:00,32.2,24.0,30.45,South,188,8.0,-999.0,73,-99.99,,,0.00,weatherlink.com 1.10,2013-01-08 01:40:00,
2013-01-07 20:55:00,32.2,25.0,30.46,South,174,5.0,-999.0,74,-99.99,,,0.00,weatherlink.com 1.10,2013-01-08 01:55:00,
2013-01-07 21:10:00,32.1,25.0,30.45,South,186,5.0,-999.0,74,-99.99,,,0.00,weatherlink.com 1.10,2013-01-08 02:10:00,
2013-01-07 21:25:00,32.1,24.0,30.45,SSW,196,2.0,-999.0,73,-99.99,,,0.00,weatherlink.com 1.10,2013-01-08 02:25:00,
2013-01-07 21:40:00,32.2,24.0,30.44,SSW,198,1.0,-999.0,73,-99.99,,,0.00,weatherlink.com 1.10,2013-01-08 02:40:00,
2013-01-07 21:55:00,32.1,24.0,30.44,SSE,163,4.0,-999.0,73,-99.99,,,0.00,weatherlink.com 1.10,2013-01-08 02:55:00,
2013-01-07 22:10:00,32.0,25.0,30.44,SSE,153,6.0,-999.0,74,-99.99,,,0.00,weatherlink.com 1.10,2013-01-08 03:10:00,
2013-01-07 22:25:00,31.8,25.0,30.45,South,175,5.0,-999.0,75,-99.99,,,0.00,weatherlink.com 1.10,2013-01-08 03:25:00,
2013-01-07 22:41:00,31.6,25.0,30.46,South,178,6.0,-999.0,76,-99.99,,,0.00,weatherlink.com 1.10,2013-01-08 03:41:00,
2013-01-07 22:55:00,31.5,25.0,30.45,SSE,168,5.0,-999.0,76,-99.99,,,0.00,weatherlink.com 1.10,2013-01-08 03:55:00,
2013-01-07 23:11:00,31.3,25.0,30.45,SSE,158,6.0,-999.0,77,-99.99,,,0.00,weatherlink.com 1.10,2013-01-08 04:11:00,
2013-01-07 23:25:00,31.2,24.0,30.45,South,177,11.0,-999.0,76,-99.99,,,0.00,weatherlink.com 1.10,2013-01-08 04:25:00,
2013-01-07 23:40:00,31.0,25.0,30.45,SE,136,7.0,-999.0,77,-99.99,,,0.00,weatherlink.com 1.10,2013-01-08 04:40:00,
2013-01-07 23:55:00,31.0,25.0,30.45,South,188,7.0,-999.0,77,-99.99,,,0.00,weatherlink.com 1.10,2013-01-08 04:55:00,